Rainbow (RB1) Station Data

Red Flag Warning: No
Fire Weather Zone: 250
SDGE Region: North East
Lat/Lon: 33.419/-117.144

Observations

Time Wind Speed/Gust Temp(F) RH Fuel Moist Fuel Temp(F) Dewpt(F) Tmax(F) Tmin(F) Accum Precip 10-min Precip SL Press(mb)
2/27 11:40pm 186 7 G 10 50° 93% - - 48° 54.4° 43.7° - - -
2/27 11:20pm 212 2 G 4 50° 93% - - 48° 54.4° 43.7° - - -
2/27 11:10pm 188 2 G 4 50° 93% - - 48° 54.4° 43.7° - - -
2/27 11:00pm 174 3 G 6 50° 93% - - 48° 54.4° 43.7° - - -
2/27 10:50pm 172 6 G 9 50° 93% - - 48° 54.4° 43.7° - - -
2/27 10:40pm 184 6 G 9 50° 93% - - 48° 54.4° 43.7° - - -
2/27 10:30pm 188 6 G 9 50° 92% - - 48° 54.4° 43.7° - - -
2/27 10:20pm 178 4 G 6 50° 92% - - 48° 54.4° 43.7° - - -
2/27 10:10pm 185 3 G 6 50° 92% - - 48° 54.4° 43.7° - - -
2/27 10:00pm 212 3 G 5 50° 92% - - 48° 54.4° 43.7° - - -
2/27 9:50pm 180 4 G 7 50° 92% - - 48° 54.4° 43.7° - - -
2/27 9:40pm 165 5 G 7 50° 92% - - 48° 54.4° 43.7° - - -
2/27 9:30pm 171 4 G 6 51° 92% - - 48° 54.4° 43.7° - - -
2/27 9:20pm 191 4 G 5 51° 92% - - 48° 54.4° 43.7° - - -
2/27 9:10pm 206 4 G 6 51° 92% - - 49° 54.4° 43.7° - - -
2/27 9:00pm 209 5 G 7 51° 92% - - 49° 54.4° 43.7° - - -
2/27 8:50pm 214 5 G 7 51° 92% - - 49° 54.4° 43.7° - - -
2/27 8:40pm 208 4 G 7 51° 92% - - 49° 54.4° 43.7° - - -
2/27 8:30pm 199 4 G 6 51° 92% - - 49° 54.4° 43.7° - - -
2/27 8:20pm 209 3 G 6 51° 92% - - 49° 54.4° 43.7° - - -
2/27 8:10pm 180 4 G 5 51° 92% - - 49° 54.4° 43.7° - - -
2/27 8:00pm 167 4 G 6 51° 92% - - 49° 54.4° 43.7° - - -
2/27 7:50pm 164 4 G 6 51° 92% - - 49° 54.4° 43.7° - - -
2/27 7:40pm 192 4 G 7 51° 92% - - 49° 54.4° 43.7° - - -
2/27 7:30pm 221 5 G 9 51° 92% - - 49° 54.4° 43.7° - - -
2/27 7:20pm 222 6 G 10 52° 92% - - 49° 54.4° 43.7° - - -
2/27 7:10pm 204 6 G 8 52° 92% - - 49° 54.4° 43.7° - - -
2/27 7:00pm 189 5 G 9 52° 92% - - 49° 54.4° 43.7° - - -
2/27 6:50pm 190 6 G 10 52° 92% - - 50° 54.4° 43.7° - - -
2/27 6:40pm 184 7 G 11 52° 92% - - 50° 54.4° 43.7° - - -
2/27 6:30pm 197 6 G 10 52° 92% - - 50° 54.4° 43.7° - - -
2/27 6:20pm 202 8 G 13 52° 92% - - 50° 54.4° 43.7° - - -
2/27 6:10pm 183 7 G 12 52° 92% - - 50° 54.4° 43.7° - - -
2/27 6:00pm 180 5 G 9 52° 92% - - 50° 54.4° 43.7° - - -
2/27 5:50pm 190 7 G 10 52° 92% - - 50° 54.4° 43.7° - - -
2/27 5:40pm 208 6 G 12 52° 92% - - 50° 54.4° 43.7° - - -
2/27 5:30pm 205 6 G 12 52° 92% - - 50° 54.4° 43.7° - - -
2/27 5:20pm 215 9 G 16 53° 92% - - 50° 54.4° 43.7° - - -
2/27 5:10pm 211 9 G 15 53° 92% - - 50° 54.4° 43.7° - - -
2/27 5:00pm 202 8 G 14 53° 92% - - 51° 54.4° 43.7° - - -
2/27 4:50pm 207 8 G 14 53° 92% - - 51° 54.4° 43.7° - - -
2/27 4:40pm 200 11 G 24 53° 92% - - 51° 54.4° 43.7° - - -
2/27 4:30pm 194 13 G 26 53° 91% - - 51° 54.4° 43.7° - - -
2/27 4:20pm 193 13 G 22 53° 91% - - 51° 54.4° 43.7° - - -
2/27 4:10pm 184 12 G 21 53° 91% - - 51° 54.4° 43.7° - - -
2/27 4:00pm 184 14 G 24 53° 91% - - 51° 54.4° 43.7° - - -
2/27 3:50pm 188 13 G 22 53° 91% - - 51° 54.4° 43.7° - - -
2/27 3:40pm 185 13 G 23 53° 91% - - 51° 54.4° 43.7° - - -
2/27 3:30pm 196 15 G 26 53° 91% - - 50° 54.4° 43.7° - - -
2/27 3:20pm 184 14 G 22 53° 91% - - 50° 54.4° 43.7° - - -
2/27 3:10pm 181 15 G 23 53° 91% - - 51° 54.4° 43.7° - - -
2/27 3:00pm 194 14 G 21 53° 91% - - 51° 54.4° 43.7° - - -
2/27 2:50pm 205 11 G 18 53° 91% - - 51° 54.4° 43.7° - - -
2/27 2:40pm 217 11 G 20 53° 91% - - 51° 54.4° 43.7° - - -
2/27 2:30pm 208 11 G 18 54° 92% - - 52° 54.4° 43.7° - - -
2/27 2:20pm 198 10 G 17 54° 92% - - 52° 54.4° 43.7° - - -
2/27 2:10pm 186 14 G 23 54° 92% - - 52° 54.4° 43.7° - - -
2/27 2:00pm 193 12 G 21 54° 92% - - 52° 54.4° 43.7° - - -
2/27 1:50pm 191 12 G 21 54° 91% - - 52° 54.4° 43.7° - - -
2/27 1:40pm 190 13 G 21 54° 91% - - 52° 54.4° 43.7° - - -
2/27 1:30pm 193 13 G 21 54° 91% - - 52° 54.4° 43.7° - - -
2/27 1:20pm 189 15 G 25 54° 91% - - 52° 54.4° 43.7° - - -
2/27 1:10pm 186 11 G 18 54° 91% - - 51° 54.3° 43.7° - - -
2/27 1:00pm 179 9 G 16 54° 91% - - 51° 54° 43.7° - - -
2/27 12:50pm 173 9 G 14 53° 91% - - 51° 53.8° 43.7° - - -
2/27 12:40pm 182 7 G 13 53° 91% - - 51° 53.8° 43.7° - - -
2/27 12:30pm 194 8 G 14 53° 91% - - 51° 53.8° 43.7° - - -
2/27 12:20pm 186 9 G 17 53° 91% - - 51° 53.8° 43.7° - - -
2/27 12:10pm 193 11 G 22 53° 91% - - 51° 53.8° 43.7° - - -
2/27 12:00pm 188 10 G 22 54° 91% - - 51° 53.8° 43.7° - - -
2/27 11:50am 185 10 G 19 54° 92% - - 51° 53.8° 43.7° - - -
2/27 11:40am 178 10 G 15 54° 92% - - 51° 53.7° 43.7° - - -
2/27 11:30am 178 10 G 20 53° 92% - - 51° 53.7° 43.7° - - -
2/27 11:20am 188 8 G 14 53° 91% - - 51° 53.4° 43.7° - - -
2/27 11:10am 191 7 G 12 53° 91% - - 50° 52.9° 43.7° - - -
2/27 11:00am 213 7 G 12 53° 91% - - 50° 52.8° 43.7° - - -
2/27 10:50am 237 4 G 7 52° 91% - - 50° 52.4° 43.7° - - -
2/27 10:40am 279 2 G 4 51° 91% - - 49° 52° 43.7° - - -
2/27 10:30am 344 2 G 3 50° 91% - - 48° 50.8° 43.7° - - -
2/27 10:20am 350 2 G 4 49° 91% - - 47° 50.2° 43.7° - - -
2/27 10:10am 77 1 G 2 49° 92% - - 46° 49.2° 43.7° - - -
2/27 10:00am 12 5 G 7 48° 91% - - 46° 48.2° 43.7° - - -
2/27 9:50am 7 5 G 7 48° 91% - - 45° 48.2° 43.7° - - -
2/27 9:40am 15 3 G 4 47° 91% - - 45° 47.8° 43.7° - - -
2/27 9:30am 15 6 G 8 47° 91% - - 44° 47.1° 43.7° - - -
2/27 9:20am 4 6 G 8 47° 91% - - 44° 47° 43.7° - - -
2/27 9:10am 11 6 G 8 47° 91% - - 44° 46.8° 43.7° - - -
2/27 9:00am 14 6 G 8 46° 91% - - 44° 46.6° 43.7° - - -
2/27 8:50am 2 6 G 9 46° 91% - - 44° 46.6° 43.7° - - -
2/27 8:40am 6 6 G 9 46° 91% - - 44° 46.6° 43.7° - - -
2/27 8:30am 15 7 G 10 46° 91% - - 43° 46.6° 43.7° - - -
2/27 8:20am 6 9 G 15 45° 90% - - 43° 46.6° 43.7° - - -
2/27 8:10am 1 9 G 14 46° 90% - - 43° 46.6° 43.7° - - -
2/27 8:00am 357 7 G 11 46° 90% - - 44° 46.6° 43.7° - - -
2/27 7:50am 3 8 G 14 46° 90% - - 43° 46.2° 43.7° - - -
2/27 7:40am 4 8 G 13 46° 90% - - 43° 46.2° 43.7° - - -
2/27 7:30am 8 7 G 11 46° 90% - - 43° 46.2° 43.7° - - -
2/27 7:20am 14 9 G 13 46° 90% - - 43° 46.2° 43.7° - - -
2/27 7:10am 24 7 G 12 45° 90% - - 43° 46.2° 43.7° - - -
2/27 7:00am 28 7 G 13 45° 90% - - 42° 46.2° 43.7° - - -
2/27 6:50am 18 7 G 13 45° 90% - - 42° 46.2° 43.7° - - -
2/27 6:40am 22 8 G 15 45° 90% - - 42° 46.2° 43.7° - - -
2/27 6:30am 21 8 G 16 45° 90% - - 42° 46.2° 43.7° - - -
2/27 6:20am 33 6 G 11 45° 90% - - 42° 46.2° 43.7° - - -
2/27 6:10am 25 8 G 14 45° 90% - - 42° 46.2° 43.7° - - -
2/27 6:00am 23 7 G 14 45° 90% - - 42° 46.2° 43.7° - - -
2/27 5:50am 18 9 G 17 45° 90% - - 42° 46.2° 43.7° - - -
2/27 5:40am 23 7 G 12 45° 90% - - 42° 46.2° 43.7° - - -
2/27 5:30am 28 7 G 15 45° 90% - - 42° 46.2° 43.7° - - -
2/27 5:20am 38 6 G 12 45° 90% - - 42° 46.2° 43.7° - - -
2/27 5:10am 36 6 G 11 44° 90% - - 42° 46.2° 43.7° - - -
2/27 5:00am 38 7 G 12 44° 90% - - 42° 46.2° 43.7° - - -
2/27 4:50am 33 7 G 14 44° 90% - - 41° 46.2° 43.7° - - -
2/27 4:40am 25 8 G 17 44° 90% - - 41° 46.2° 43.7° - - -
2/27 4:30am 28 6 G 11 44° 90% - - 41° 46.2° 43.7° - - -
2/27 4:20am 29 7 G 12 44° 90% - - 41° 46.2° 43.7° - - -
2/27 4:10am 13 8 G 16 44° 90% - - 41° 46.2° 43.8° - - -
2/27 4:00am 22 7 G 15 44° 89% - - 41° 46.2° 43.9° - - -
2/27 3:50am 39 5 G 11 44° 89% - - 41° 46.2° 44° - - -
2/27 3:40am 40 5 G 9 45° 89% - - 42° 46.2° 44° - - -
2/27 3:30am 37 4 G 8 45° 89% - - 42° 46.2° 44° - - -
2/27 3:20am 31 4 G 10 44° 89% - - 41° 46.2° 44° - - -
2/27 3:10am 21 7 G 12 44° 89% - - 41° 46.2° 44° - - -
2/27 3:00am 24 6 G 10 44° 87% - - 41° 46.2° 44.2° - - -
2/27 2:50am 30 5 G 10 45° 86% - - 41° 46.2° 44.2° - - -
2/27 2:40am 29 4 G 7 45° 83% - - 40° 46.2° 44.2° - - -
2/27 2:30am 21 4 G 9 45° 81% - - 40° 46.2° 44.2° - - -
2/27 2:20am 19 4 G 7 45° 77% - - 39° 46.2° 44.2° - - -
2/27 2:10am 26 4 G 7 46° 73% - - 38° 46.2° 44.2° - - -
2/27 2:00am 17 5 G 9 46° 71% - - 37° 46.2° 44.2° - - -
2/27 1:50am 6 6 G 10 46° 73% - - 38° 46.2° 44.2° - - -
2/27 1:40am 5 7 G 11 46° 76% - - 39° 46.1° 44.2° - - -
2/27 1:30am 9 6 G 10 46° 78% - - 39° 46° 44.2° - - -
2/27 1:20am 1 5 G 10 46° 78% - - 39° 46° 44.2° - - -
2/27 1:10am 23 4 G 5 45° 80% - - 40° 45.8° 44.2° - - -
2/27 1:00am 32 3 G 5 45° 80% - - 40° 45.6° 44.2° - - -
2/27 12:50am 246 2 G 3 45° 84% - - 40° 45.6° 44.2° - - -
2/27 12:40am 328 2 G 4 44° 83% - - 40° 45.6° 44.2° - - -
2/27 12:30am 72 3 G 5 45° 82% - - 40° 45.6° 44.2° - - -
2/27 12:20am 63 2 G 3 45° 84% - - 40° 45.6° 44.6° - - -
2/27 12:10am 34 2 G 3 45° 84% - - 41° 45.6° 44.9° - - -
2/27 12:00am 32 1 G 3 46° 83% - - 41° 52.7° 45.5° - - -
2/26 11:50pm 324 2 G 2 46° 82% - - 41° 52.7° 45.6° - - -
2/26 11:40pm 335 0 G 2 47° 81% - - 41° 52.7° 45.6° - - -
2/26 11:30pm 223 2 G 3 47° 81% - - 41° 52.7° 45.6° - - -
2/26 11:20pm 236 2 G 3 47° 82% - - 42° 52.7° 45.6° - - -
2/26 11:10pm 222 2 G 3 47° 82% - - 42° 52.7° 45.6° - - -
2/26 11:00pm 232 3 G 4 47° 82% - - 42° 52.7° 45.6° - - -
2/26 10:50pm 222 3 G 4 48° 82% - - 42° 52.7° 45.6° - - -
2/26 10:40pm 230 2 G 4 48° 82% - - 42° 52.7° 45.6° - - -
2/26 10:30pm 201 2 G 2 48° 83% - - 43° 52.7° 45.6° - - -
2/26 10:20pm 207 2 G 3 47° 84% - - 43° 52.7° 45.6° - - -
2/26 10:10pm 237 2 G 3 47° 85% - - 43° 52.7° 45.6° - - -
2/26 10:00pm 222 1 G 3 47° 86% - - 43° 52.7° 45.6° - - -
2/26 9:50pm 243 1 G 4 47° 86% - - 43° 52.7° 45.6° - - -
2/26 9:40pm 298 0 G 1 47° 87% - - 43° 52.7° 45.6° - - -
2/26 9:30pm 300 1 G 4 47° 87% - - 43° 52.7° 45.6° - - -
2/26 9:20pm 26 0 G 1 47° 87% - - 43° 52.7° 45.6° - - -
2/26 9:10pm 251 0 G 1 47° 86% - - 43° 52.7° 45.6° - - -
2/26 9:00pm 222 1 G 3 47° 86% - - 43° 52.7° 45.6° - - -
2/26 8:50pm 215 3 G 5 47° 86% - - 43° 52.7° 45.6° - - -
2/26 8:40pm 206 3 G 4 48° 86% - - 44° 52.7° 45.6° - - -
2/26 8:30pm 208 3 G 4 48° 86% - - 44° 52.7° 45.6° - - -
2/26 8:20pm 214 3 G 5 48° 86% - - 44° 52.7° 45.6° - - -
2/26 8:10pm 203 3 G 5 48° 85% - - 43° 52.7° 45.6° - - -
2/26 8:00pm 200 4 G 5 48° 86% - - 43° 52.7° 45.6° - - -
2/26 7:50pm 199 4 G 5 47° 86% - - 43° 52.7° 45.6° - - -
2/26 7:40pm 194 3 G 5 48° 86% - - 43° 52.7° 45.6° - - -
2/26 7:30pm 192 3 G 4 47° 86% - - 43° 52.7° 45.6° - - -
2/26 7:20pm 202 3 G 4 48° 85% - - 43° 52.7° 45.6° - - -
2/26 7:10pm 199 3 G 5 48° 84% - - 43° 52.7° 45.6° - - -
2/26 7:00pm 185 3 G 5 48° 83% - - 43° 52.7° 45.6° - - -
2/26 6:50pm 177 4 G 6 48° 82% - - 43° 52.7° 45.6° - - -
2/26 6:40pm 200 4 G 7 48° 81% - - 43° 52.7° 45.6° - - -
2/26 6:30pm 200 5 G 8 48° 83% - - 43° 52.7° 45.6° - - -
2/26 6:20pm 204 4 G 6 49° 83% - - 44° 52.7° 45.6° - - -
2/26 6:10pm 205 5 G 9 49° 83% - - 44° 52.7° 45.6° - - -
2/26 6:00pm 206 5 G 9 49° 85% - - 45° 52.7° 45.6° - - -
2/26 5:50pm 202 6 G 9 49° 87% - - 45° 52.7° 45.6° - - -
2/26 5:40pm 194 7 G 10 49° 88% - - 46° 52.7° 45.6° - - -
2/26 5:30pm 193 6 G 9 49° 89% - - 46° 52.7° 45.6° - - -
2/26 5:20pm 184 7 G 10 49° 88% - - 46° 52.7° 45.6° - - -
2/26 5:10pm 187 6 G 8 49° 88% - - 46° 52.7° 45.6° - - -
2/26 5:00pm 193 6 G 9 49° 88% - - 46° 52.7° 45.6° - - -